createdAt,value
2018-07-08T00:01:35.859Z,31.47
2018-07-08T00:04:04.972Z,31.67
2018-07-08T00:06:35.247Z,32.33
2018-07-08T00:09:05.147Z,31.60
2018-07-08T00:11:34.478Z,30.67
2018-07-08T00:14:04.502Z,31.67
2018-07-08T00:16:34.252Z,33.17
2018-07-08T00:19:03.440Z,32.40
2018-07-08T00:21:33.079Z,33.63
2018-07-08T00:24:02.264Z,37.10
2018-07-08T00:26:31.399Z,34.50
2018-07-08T00:29:00.547Z,34.10
2018-07-08T00:31:29.679Z,34.43
2018-07-08T00:33:58.821Z,36.33
2018-07-08T00:36:27.972Z,40.17
2018-07-08T00:38:57.102Z,39.57
2018-07-08T00:41:26.267Z,40.50
2018-07-08T00:43:55.435Z,38.30
2018-07-08T00:46:25.099Z,39.47
2018-07-08T00:48:54.302Z,40.10
2018-07-08T00:51:23.522Z,37.90
2018-07-08T00:53:53.032Z,38.80
2018-07-08T00:56:22.162Z,36.33
2018-07-08T00:58:51.387Z,39.17
2018-07-08T01:01:20.519Z,37.70
2018-07-08T01:03:49.788Z,40.60
2018-07-08T01:06:18.928Z,39.83
2018-07-08T01:08:48.049Z,40.37
2018-07-08T01:11:17.219Z,38.27
2018-07-08T01:13:46.818Z,40.10
2018-07-08T01:16:16.114Z,40.50
2018-07-08T01:18:45.391Z,42.87
2018-07-08T01:21:14.876Z,42.00
2018-07-08T01:23:44.810Z,42.37
2018-07-08T01:26:14.561Z,44.17
2018-07-08T01:28:44.839Z,42.97
2018-07-08T01:31:14.394Z,43.67
2018-07-08T01:33:43.843Z,49.63
2018-07-08T01:36:13.679Z,47.03
2018-07-08T01:38:43.283Z,45.27
2018-07-08T01:41:12.671Z,44.57
2018-07-08T01:43:42.019Z,51.00
2018-07-08T01:46:11.686Z,48.03
2018-07-08T01:48:41.045Z,48.77
2018-07-08T01:51:10.613Z,51.87
2018-07-08T01:53:41.176Z,51.60
2018-07-08T01:56:10.363Z,50.40
2018-07-08T01:58:39.506Z,48.37
2018-07-08T02:01:08.662Z,46.10
2018-07-08T02:03:37.839Z,50.60
2018-07-08T02:06:07.045Z,47.77
2018-07-08T02:08:36.683Z,49.53
2018-07-08T02:11:05.808Z,47.07
2018-07-08T02:13:34.943Z,49.40
2018-07-08T02:16:04.100Z,53.07
2018-07-08T02:18:33.820Z,48.80
2018-07-08T02:21:02.934Z,46.73
2018-07-08T02:23:32.051Z,46.97
2018-07-08T02:26:01.355Z,44.60
2018-07-08T02:28:30.694Z,43.80
2018-07-08T02:31:00.032Z,38.83
2018-07-08T02:33:29.255Z,41.20
2018-07-08T02:35:58.470Z,37.77
2018-07-08T02:38:27.875Z,36.27
2018-07-08T02:40:57.160Z,37.87
2018-07-08T02:43:26.345Z,39.23
2018-07-08T02:45:56.788Z,40.97
2018-07-08T02:48:26.846Z,40.33
2018-07-08T02:50:56.271Z,40.50
2018-07-08T02:53:25.551Z,38.70
2018-07-08T02:55:54.835Z,41.57
2018-07-08T02:58:24.274Z,41.87
2018-07-08T03:00:53.368Z,38.93
2018-07-08T03:03:22.455Z,38.77
2018-07-08T03:05:51.514Z,37.67
2018-07-08T03:08:20.595Z,38.57
2018-07-08T03:10:49.740Z,40.60
2018-07-08T03:13:18.891Z,38.50
2018-07-08T03:15:47.986Z,38.30
2018-07-08T03:18:17.103Z,36.63
2018-07-08T03:20:46.213Z,36.87
2018-07-08T03:23:15.308Z,37.73
2018-07-08T03:25:44.390Z,37.90
2018-07-08T03:28:13.455Z,38.60
2018-07-08T03:30:42.623Z,35.77
2018-07-08T03:33:11.699Z,37.37
2018-07-08T03:35:40.853Z,39.77
2018-07-08T03:38:09.919Z,38.13
2018-07-08T03:40:39.011Z,41.60
2018-07-08T03:43:08.569Z,39.03
2018-07-08T03:45:37.861Z,41.17
2018-07-08T03:48:06.970Z,39.07
2018-07-08T03:50:36.099Z,39.27
2018-07-08T03:53:05.200Z,38.03
2018-07-08T03:55:34.747Z,38.10
2018-07-08T03:58:03.859Z,42.40
2018-07-08T04:00:33.462Z,38.60
2018-07-08T04:03:02.643Z,41.07
2018-07-08T04:05:32.267Z,38.30
2018-07-08T04:08:01.859Z,40.40
2018-07-08T04:10:30.970Z,37.43
2018-07-08T04:13:00.735Z,37.80
2018-07-08T04:15:30.025Z,35.67
2018-07-08T04:18:08.944Z,35.43
2018-07-08T04:20:39.635Z,35.20
2018-07-08T04:23:09.587Z,32.60
2018-07-08T04:25:38.692Z,32.73
2018-07-08T04:28:07.818Z,33.90
2018-07-08T04:30:37.186Z,29.80
2018-07-08T04:33:06.547Z,29.73
2018-07-08T04:35:35.662Z,27.97
2018-07-08T04:38:04.842Z,27.87
2018-07-08T04:40:33.926Z,28.17
2018-07-08T04:43:03.115Z,27.83
2018-07-08T04:45:33.176Z,27.13
2018-07-08T04:48:02.314Z,26.40
2018-07-08T04:50:31.657Z,26.33
2018-07-08T04:53:00.798Z,25.33
2018-07-08T04:55:29.946Z,27.40
2018-07-08T04:57:59.731Z,27.80
2018-07-08T05:00:28.852Z,28.03
2018-07-08T05:02:58.137Z,27.93
2018-07-08T05:05:27.393Z,26.73
2018-07-08T05:07:56.701Z,29.40
2018-07-08T05:10:25.994Z,26.13
2018-07-08T05:12:55.142Z,27.50
2018-07-08T05:15:24.217Z,25.70
2018-07-08T05:17:53.294Z,25.07
2018-07-08T05:20:22.418Z,22.97
2018-07-08T05:22:51.486Z,24.43
2018-07-08T05:25:20.594Z,22.43
2018-07-08T05:27:49.712Z,20.57
2018-07-08T05:30:18.866Z,21.50
2018-07-08T05:32:47.983Z,19.40
2018-07-08T05:35:17.058Z,21.70
2018-07-08T05:37:46.154Z,19.70
2018-07-08T05:40:16.045Z,21.23
2018-07-08T05:42:45.114Z,15.63
2018-07-08T05:45:15.024Z,15.77
2018-07-08T05:47:44.107Z,16.50
2018-07-08T05:50:13.278Z,18.10
2018-07-08T05:52:43.163Z,17.77
2018-07-08T05:55:12.230Z,16.83
2018-07-08T05:57:41.322Z,18.63
2018-07-08T06:00:10.410Z,17.67
2018-07-08T06:02:39.550Z,20.00
2018-07-08T06:05:08.784Z,17.77
2018-07-08T06:07:38.113Z,16.90
2018-07-08T06:10:08.079Z,14.67
2018-07-08T06:12:37.578Z,14.67
2018-07-08T06:15:06.911Z,12.00
2018-07-08T06:17:36.651Z,11.70
2018-07-08T06:20:10.385Z,10.97
2018-07-08T06:22:40.105Z,11.60
2018-07-08T06:25:09.986Z,11.93
2018-07-08T06:27:39.495Z,13.00
2018-07-08T06:30:08.668Z,10.47
2018-07-08T06:32:37.738Z,11.93
2018-07-08T06:35:06.814Z,9.87
2018-07-08T06:37:35.943Z,11.20
2018-07-08T06:40:05.221Z,11.13
2018-07-08T06:42:34.368Z,9.87
2018-07-08T06:45:03.439Z,9.43
2018-07-08T06:47:32.566Z,9.37
2018-07-08T06:50:01.679Z,10.10
2018-07-08T06:52:30.747Z,9.37
2018-07-08T06:55:00.295Z,10.00
2018-07-08T06:57:29.399Z,9.70
2018-07-08T06:59:58.499Z,9.90
2018-07-08T07:02:27.578Z,9.20
2018-07-08T07:04:56.690Z,9.20
2018-07-08T07:07:25.798Z,9.53
2018-07-08T07:09:54.867Z,8.73
2018-07-08T07:12:24.490Z,9.63
2018-07-08T07:14:53.626Z,9.10
2018-07-08T07:17:22.831Z,8.20
2018-07-08T07:19:52.241Z,9.00
2018-07-08T07:22:22.510Z,8.00
2018-07-08T07:24:51.847Z,8.33
2018-07-08T07:27:21.207Z,8.20
2018-07-08T07:29:52.495Z,8.60
2018-07-08T07:32:21.627Z,8.50
2018-07-08T07:34:51.057Z,8.37
2018-07-08T07:37:22.112Z,8.73
2018-07-08T07:39:51.543Z,9.43
2018-07-08T07:42:21.491Z,9.17
2018-07-08T07:44:51.369Z,8.43
2018-07-08T07:47:21.250Z,8.93
2018-07-08T07:49:51.197Z,8.50
2018-07-08T07:52:21.098Z,8.43
2018-07-08T07:54:50.176Z,7.50
2018-07-08T07:57:20.103Z,8.57
2018-07-08T07:59:49.186Z,8.07
2018-07-08T08:02:19.205Z,7.20
2018-07-08T08:04:48.450Z,8.43
2018-07-08T08:07:17.543Z,7.77
2018-07-08T08:09:46.736Z,8.47
2018-07-08T08:12:16.375Z,8.00
2018-07-08T08:14:46.310Z,7.17
2018-07-08T08:17:15.591Z,6.87
2018-07-08T08:19:44.923Z,5.80
2018-07-08T08:22:14.176Z,7.17
2018-07-08T08:24:44.542Z,6.80
2018-07-08T08:27:13.614Z,6.17
2018-07-08T08:29:42.709Z,6.27
2018-07-08T08:32:12.387Z,7.20
2018-07-08T08:34:51.530Z,7.53
2018-07-08T08:37:22.518Z,8.37
2018-07-08T08:39:52.747Z,6.13
2018-07-08T08:42:22.158Z,6.10
2018-07-08T08:44:52.127Z,5.50
2018-07-08T08:47:22.125Z,5.17
2018-07-08T08:49:52.134Z,5.53
2018-07-08T08:52:21.597Z,5.50
2018-07-08T08:54:51.854Z,5.40
2018-07-08T08:57:21.331Z,4.80
2018-07-08T08:59:50.654Z,4.63
2018-07-08T09:02:20.382Z,5.43
2018-07-08T09:04:49.463Z,4.80
2018-07-08T09:07:19.731Z,5.13
2018-07-08T09:09:48.801Z,5.73
2018-07-08T09:12:17.883Z,6.00
2018-07-08T09:14:46.994Z,5.50
2018-07-08T09:17:16.518Z,5.80
2018-07-08T09:19:46.134Z,5.43
2018-07-08T09:22:15.686Z,5.50
2018-07-08T09:24:45.091Z,5.13
2018-07-08T09:27:14.598Z,5.20
2018-07-08T09:29:43.871Z,5.40
2018-07-08T09:32:13.496Z,4.80
2018-07-08T09:34:42.794Z,4.83
2018-07-08T09:37:12.571Z,4.60
2018-07-08T09:39:41.674Z,4.80
2018-07-08T09:42:10.746Z,5.70
2018-07-08T09:44:40.391Z,5.70
2018-07-08T09:47:09.471Z,4.40
2018-07-08T09:49:38.578Z,4.80
2018-07-08T09:52:08.106Z,4.80
2018-07-08T09:54:37.356Z,4.87
2018-07-08T09:57:06.957Z,4.70
2018-07-08T09:59:36.195Z,4.60
2018-07-08T10:02:06.066Z,3.97
2018-07-08T10:04:37.314Z,4.67
2018-07-08T10:07:06.402Z,4.47
2018-07-08T10:09:35.763Z,4.83
2018-07-08T10:12:05.845Z,5.67
2018-07-08T10:14:35.522Z,4.30
2018-07-08T10:17:04.825Z,5.10
2018-07-08T10:19:34.740Z,4.87
2018-07-08T10:22:04.154Z,5.10
2018-07-08T10:24:33.455Z,5.07
2018-07-08T10:29:10.507Z,4.67
2018-07-08T10:31:51.084Z,5.10
2018-07-08T10:34:20.608Z,4.47
2018-07-08T10:36:50.342Z,4.33
2018-07-08T10:39:19.451Z,4.70
2018-07-08T10:41:49.868Z,4.73
2018-07-08T10:44:18.942Z,5.07
2018-07-08T10:46:48.031Z,5.30
2018-07-08T10:49:17.141Z,5.10
2018-07-08T10:51:46.223Z,6.47
2018-07-08T10:54:15.565Z,4.33
2018-07-08T10:56:45.273Z,4.67
2018-07-08T10:59:14.344Z,4.47
2018-07-08T11:01:43.471Z,5.07
2018-07-08T11:04:12.499Z,5.60
2018-07-08T11:06:41.562Z,4.43
2018-07-08T11:09:10.642Z,5.60
2018-07-08T11:11:39.762Z,4.97
2018-07-08T11:14:08.843Z,4.70
2018-07-08T11:16:37.939Z,5.40
2018-07-08T11:19:07.040Z,4.27
2018-07-08T11:21:36.178Z,5.20
2018-07-08T11:24:05.466Z,5.80
2018-07-08T11:26:34.354Z,4.80
2018-07-08T11:29:03.718Z,5.57
2018-07-08T11:31:33.038Z,4.83
2018-07-08T11:34:02.334Z,5.87
2018-07-08T11:36:31.613Z,4.00
2018-07-08T11:39:00.891Z,5.40
2018-07-08T11:41:30.166Z,4.83
2018-07-08T11:43:59.800Z,5.47
2018-07-08T11:46:29.091Z,4.67
2018-07-08T11:48:58.297Z,4.50
2018-07-08T11:51:28.478Z,4.60
2018-07-08T11:53:57.582Z,5.23
2018-07-08T11:56:26.843Z,4.73
2018-07-08T11:58:55.943Z,4.20
2018-07-08T12:01:25.074Z,4.73
2018-07-08T12:03:54.598Z,5.33
2018-07-08T12:06:24.295Z,4.77
2018-07-08T12:08:53.410Z,5.10
2018-07-08T12:11:22.503Z,4.90
2018-07-08T12:13:53.247Z,4.43
2018-07-08T12:16:22.343Z,6.13
2018-07-08T12:18:51.434Z,4.63
2018-07-08T12:21:20.619Z,5.70
2018-07-08T12:23:50.263Z,4.70
2018-07-08T12:26:19.326Z,5.63
2018-07-08T12:28:49.091Z,4.50
2018-07-08T12:31:18.162Z,4.80
2018-07-08T12:33:47.233Z,4.23
2018-07-08T12:36:16.354Z,4.50
2018-07-08T12:38:46.026Z,4.20
2018-07-08T12:41:15.479Z,5.00
2018-07-08T12:43:44.638Z,4.70
2018-07-08T12:46:13.723Z,4.40
2018-07-08T12:48:42.811Z,4.77
2018-07-08T12:51:12.020Z,3.90
2018-07-08T12:53:41.138Z,5.87
2018-07-08T12:56:10.231Z,5.00
2018-07-08T12:58:39.848Z,4.90
2018-07-08T13:01:08.850Z,5.13
2018-07-08T13:03:37.928Z,4.47
2018-07-08T13:06:07.037Z,5.53
2018-07-08T13:08:36.379Z,4.47
2018-07-08T13:11:05.454Z,3.50
2018-07-08T13:13:34.555Z,4.93
2018-07-08T13:16:04.455Z,4.80
2018-07-08T13:18:33.531Z,4.87
2018-07-08T13:21:02.659Z,4.47
2018-07-08T13:23:31.754Z,3.93
2018-07-08T13:26:00.907Z,4.83
2018-07-08T13:28:30.052Z,5.30
2018-07-08T13:30:59.419Z,4.83
2018-07-08T13:33:29.502Z,5.00
2018-07-08T13:35:58.894Z,4.83
2018-07-08T13:38:28.219Z,3.80
2018-07-08T13:40:57.569Z,4.67
2018-07-08T13:43:26.802Z,4.50
2018-07-08T13:45:56.074Z,4.27
2018-07-08T13:48:26.879Z,4.33
2018-07-08T13:50:55.955Z,4.07
2018-07-08T13:53:25.035Z,4.30
2018-07-08T13:55:54.172Z,4.60
2018-07-08T13:58:23.242Z,4.47
2018-07-08T14:00:52.314Z,4.40
2018-07-08T14:03:21.468Z,4.40
2018-07-08T14:05:50.555Z,4.17
2018-07-08T14:08:19.638Z,4.33
2018-07-08T14:10:49.358Z,4.90
2018-07-08T14:13:19.322Z,4.20
2018-07-08T14:15:49.067Z,3.87
2018-07-08T14:18:18.397Z,4.17
2018-07-08T14:20:47.523Z,4.30
2018-07-08T14:23:16.598Z,3.90
2018-07-08T14:25:45.679Z,4.30
2018-07-08T14:28:14.782Z,3.77
2018-07-08T14:30:43.891Z,4.50
2018-07-08T14:33:13.202Z,3.63
2018-07-08T14:35:42.931Z,3.97
2018-07-08T14:38:12.002Z,4.20
2018-07-08T14:40:41.100Z,4.20
2018-07-08T14:43:10.202Z,4.30
2018-07-08T14:45:39.266Z,4.50
2018-07-08T14:48:08.350Z,3.90
2018-07-08T14:50:37.477Z,4.13
2018-07-08T14:53:06.746Z,4.23
2018-07-08T14:55:35.828Z,4.20
2018-07-08T14:58:04.919Z,5.23
2018-07-08T15:00:33.991Z,4.30
2018-07-08T15:03:03.063Z,4.50
2018-07-08T15:05:32.258Z,4.60
2018-07-08T15:08:01.419Z,4.30
2018-07-08T15:10:30.523Z,4.10
2018-07-08T15:12:59.670Z,3.80
2018-07-08T15:15:28.766Z,3.60
2018-07-08T15:17:57.863Z,3.87
2018-07-08T15:20:26.962Z,3.87
2018-07-08T15:22:56.519Z,4.33
2018-07-08T15:25:25.590Z,3.90
2018-07-08T15:27:54.694Z,4.30
2018-07-08T15:30:25.238Z,3.70
2018-07-08T15:32:54.623Z,3.60
2018-07-08T15:35:23.976Z,4.47
2018-07-08T15:37:53.371Z,3.90
2018-07-08T15:40:22.656Z,3.00
2018-07-08T15:42:53.049Z,3.90
2018-07-08T15:45:22.629Z,3.60
2018-07-08T15:47:51.930Z,4.40
2018-07-08T15:50:21.239Z,4.10
2018-07-08T15:52:53.002Z,4.67
2018-07-08T15:55:22.463Z,4.00
2018-07-08T15:57:51.943Z,4.07
2018-07-08T16:00:21.038Z,3.40
2018-07-08T16:02:50.310Z,3.30
2018-07-08T16:05:19.431Z,4.03
2018-07-08T16:07:48.510Z,3.60
2018-07-08T16:10:17.663Z,3.33
2018-07-08T16:12:46.751Z,3.70
2018-07-08T16:15:15.823Z,4.37
2018-07-08T16:17:44.943Z,3.80
2018-07-08T16:20:14.028Z,3.73
2018-07-08T16:22:43.129Z,3.37
2018-07-08T16:25:12.213Z,3.60
2018-07-08T16:27:41.274Z,3.73
2018-07-08T16:30:10.334Z,3.30
2018-07-08T16:32:39.514Z,4.27
2018-07-08T16:35:08.590Z,3.63
2018-07-08T16:37:37.668Z,3.77
2018-07-08T16:40:06.851Z,3.73
2018-07-08T16:42:36.639Z,3.83
2018-07-08T16:45:06.679Z,3.10
2018-07-08T16:47:35.846Z,3.43
2018-07-08T16:50:05.053Z,3.67
2018-07-08T16:52:36.267Z,3.30
2018-07-08T16:55:06.202Z,3.43
2018-07-08T16:57:36.096Z,3.30
2018-07-08T17:00:06.501Z,4.23
2018-07-08T17:02:36.094Z,3.10
2018-07-08T17:05:05.378Z,5.00
2018-07-08T17:07:34.515Z,5.07
2018-07-08T17:10:03.696Z,4.00
2018-07-08T17:12:32.803Z,3.37
2018-07-08T17:15:01.976Z,3.13
2018-07-08T17:17:31.853Z,3.47
2018-07-08T17:20:01.359Z,3.03
2018-07-08T17:22:31.355Z,3.87
2018-07-08T17:25:01.313Z,3.40
2018-07-08T17:27:31.139Z,2.53
2018-07-08T17:30:00.983Z,2.93
2018-07-08T17:32:31.111Z,3.07
2018-07-08T17:35:00.246Z,2.70
2018-07-08T17:37:29.394Z,3.40
2018-07-08T17:39:59.818Z,2.97
2018-07-08T17:42:29.070Z,3.00
2018-07-08T17:44:58.566Z,2.80
2018-07-08T17:47:27.863Z,3.20
2018-07-08T17:49:57.013Z,3.20
2018-07-08T17:52:26.118Z,3.27
2018-07-08T17:54:55.255Z,2.97
2018-07-08T17:57:25.070Z,3.13
2018-07-08T17:59:54.174Z,3.50
2018-07-08T18:02:23.347Z,4.17
2018-07-08T18:04:52.456Z,3.53
2018-07-08T18:07:21.523Z,4.50
2018-07-08T18:09:50.647Z,2.83
2018-07-08T18:12:21.214Z,3.37
2018-07-08T18:14:51.691Z,2.93
2018-07-08T18:17:21.247Z,2.53
2018-07-08T18:19:51.073Z,3.27
2018-07-08T18:22:20.530Z,3.47
2018-07-08T18:24:50.043Z,3.10
2018-07-08T18:27:19.207Z,4.60
2018-07-08T18:29:48.279Z,3.43
2018-07-08T18:32:17.344Z,3.90
2018-07-08T18:34:47.144Z,4.37
2018-07-08T18:37:16.278Z,2.83
2018-07-08T18:39:46.679Z,3.73
2018-07-08T18:42:16.031Z,3.23
2018-07-08T18:44:45.879Z,3.77
2018-07-08T18:47:15.250Z,3.20
2018-07-08T18:49:44.714Z,3.37
2018-07-08T18:52:14.354Z,3.27
2018-07-08T18:54:43.818Z,3.10
2018-07-08T18:57:13.177Z,2.70
2018-07-08T18:59:43.210Z,4.10
2018-07-08T19:02:13.203Z,2.90
2018-07-08T19:04:43.179Z,3.47
2018-07-08T19:07:13.026Z,3.07
2018-07-08T19:09:43.293Z,2.90
2018-07-08T19:12:13.208Z,3.50
2018-07-08T19:14:42.734Z,3.73
2018-07-08T19:17:12.554Z,3.10
2018-07-08T19:19:41.930Z,3.03
2018-07-08T19:22:11.642Z,3.40
2018-07-08T19:24:41.569Z,3.13
2018-07-08T19:27:11.527Z,4.37
2018-07-08T19:29:40.971Z,4.17
2018-07-08T19:32:11.246Z,3.37
2018-07-08T19:34:41.118Z,3.80
2018-07-08T19:37:10.250Z,3.20
2018-07-08T19:39:39.351Z,3.50
2018-07-08T19:42:08.726Z,4.23
2018-07-08T19:44:38.407Z,3.70
2018-07-08T19:47:07.784Z,4.30
2018-07-08T19:49:37.138Z,3.10
2018-07-08T19:52:06.568Z,3.13
2018-07-08T19:54:36.954Z,2.00
2018-07-08T19:57:06.409Z,4.10
2018-07-08T19:59:35.759Z,3.80
2018-07-08T20:02:05.535Z,4.17
2018-07-08T20:04:35.314Z,5.07
2018-07-08T20:07:05.231Z,4.33
2018-07-08T20:09:35.562Z,4.07
2018-07-08T20:12:05.364Z,3.70
2018-07-08T20:14:35.679Z,3.80
2018-07-08T20:17:05.871Z,3.67
2018-07-08T20:19:35.446Z,4.63
2018-07-08T20:22:04.530Z,6.40
2018-07-08T20:24:33.991Z,6.03
2018-07-08T20:27:03.082Z,4.70
2018-07-08T20:29:33.419Z,4.57
2018-07-08T20:32:02.535Z,4.73
2018-07-08T20:34:32.247Z,4.60
2018-07-08T20:37:01.607Z,3.87
2018-07-08T20:39:30.701Z,3.47
2018-07-08T20:41:59.854Z,4.27
2018-07-08T20:44:28.999Z,4.50
2018-07-08T20:46:58.875Z,4.20
2018-07-08T20:49:28.141Z,3.93
2018-07-08T20:51:58.699Z,4.30
2018-07-08T20:54:27.801Z,4.20
2018-07-08T20:56:57.302Z,3.70
2018-07-08T20:59:26.750Z,3.73
2018-07-08T21:01:58.077Z,3.63
2018-07-08T21:04:28.162Z,3.83
2018-07-08T21:06:57.394Z,3.80
2018-07-08T21:09:27.151Z,3.90
2018-07-08T21:11:57.567Z,4.90
2018-07-08T21:14:27.230Z,4.03
2018-07-08T21:16:56.417Z,4.20
2018-07-08T21:19:26.183Z,4.90
2018-07-08T21:21:56.124Z,3.43
2018-07-08T21:24:26.576Z,4.10
2018-07-08T21:26:56.718Z,4.43
2018-07-08T21:29:25.803Z,4.40
2018-07-08T21:31:56.839Z,4.13
2018-07-08T21:34:26.334Z,5.07
2018-07-08T21:36:55.571Z,4.10
2018-07-08T21:39:24.636Z,4.50
2018-07-08T21:41:54.542Z,4.60
2018-07-08T21:44:23.615Z,3.60
2018-07-08T21:46:52.709Z,4.93
2018-07-08T21:49:21.774Z,4.53
2018-07-08T21:51:50.829Z,5.30
2018-07-08T21:54:19.946Z,5.83
2018-07-08T21:56:49.429Z,4.43
2018-07-08T21:59:19.031Z,4.10
2018-07-08T22:02:02.678Z,5.40
2018-07-08T22:04:31.765Z,4.97
2018-07-08T22:07:06.108Z,4.30
2018-07-08T22:09:35.670Z,5.00
2018-07-08T22:12:04.971Z,5.13
2018-07-08T22:14:34.939Z,4.00
2018-07-08T22:17:04.182Z,4.43
2018-07-08T22:19:33.442Z,4.10
2018-07-08T22:22:02.949Z,4.93
2018-07-08T22:24:32.938Z,3.60
2018-07-08T22:27:02.058Z,3.93
2018-07-08T22:29:31.294Z,3.57
2018-07-08T22:32:00.432Z,4.13
2018-07-08T22:34:30.119Z,3.73
2018-07-08T22:36:59.263Z,4.50
2018-07-08T22:39:28.435Z,3.70
2018-07-08T22:41:58.274Z,3.73
2018-07-08T22:44:27.358Z,4.17
2018-07-08T22:46:57.828Z,3.83
2018-07-08T22:49:26.898Z,5.13
2018-07-08T22:51:55.979Z,4.07
2018-07-08T22:54:25.121Z,3.80
2018-07-08T22:56:54.215Z,3.93
2018-07-08T22:59:23.282Z,4.17
2018-07-08T23:04:11.451Z,4.10
2018-07-08T23:06:40.798Z,3.93
2018-07-08T23:09:10.064Z,5.30
2018-07-08T23:11:39.867Z,4.37
2018-07-08T23:14:08.945Z,4.40
2018-07-08T23:16:38.057Z,4.43
2018-07-08T23:19:07.315Z,5.03
2018-07-08T23:21:36.399Z,6.40
2018-07-08T23:24:05.494Z,5.70
2018-07-08T23:26:34.565Z,4.20
2018-07-08T23:29:03.746Z,6.00
2018-07-08T23:31:32.810Z,5.30
2018-07-08T23:34:02.272Z,4.93
2018-07-08T23:36:31.786Z,4.10
2018-07-08T23:39:00.859Z,3.93
2018-07-08T23:41:29.935Z,4.17
2018-07-08T23:43:59.238Z,4.90
2018-07-08T23:46:28.335Z,3.60
2018-07-08T23:48:57.431Z,4.73
2018-07-08T23:51:26.535Z,4.27
2018-07-08T23:53:56.240Z,5.50
2018-07-08T23:56:25.326Z,4.80
2018-07-08T23:58:54.450Z,4.00
